createdAt,value
2019-04-28T00:02:25.969Z,7.07
2019-04-28T00:04:57.067Z,7.05
2019-04-28T00:07:28.878Z,7.01
2019-04-28T00:10:01.074Z,7.05
2019-04-28T00:12:31.461Z,7.07
2019-04-28T00:15:02.459Z,7.04
2019-04-28T00:17:32.902Z,7.05
2019-04-28T00:20:05.004Z,7.05
2019-04-28T00:22:46.234Z,7.07
2019-04-28T00:25:21.596Z,7.07
2019-04-28T00:27:52.662Z,7.05
2019-04-28T00:30:22.975Z,6.98
2019-04-28T00:32:53.174Z,6.94
2019-04-28T00:35:23.441Z,6.92
2019-04-28T00:37:53.736Z,6.83
2019-04-28T00:40:23.968Z,6.83
2019-04-28T00:42:54.311Z,6.74
2019-04-28T00:45:24.550Z,6.70
2019-04-28T00:47:54.748Z,6.73
2019-04-28T00:50:25.922Z,6.76
2019-04-28T00:52:57.949Z,6.80
2019-04-28T00:55:28.185Z,6.76
2019-04-28T00:57:58.511Z,6.74
2019-04-28T01:00:31.404Z,6.71
2019-04-28T01:03:02.182Z,6.68
2019-04-28T01:05:56.646Z,6.59
2019-04-28T01:08:52.089Z,6.58
2019-04-28T01:11:48.684Z,6.59
2019-04-28T01:14:44.236Z,6.53
2019-04-28T01:18:07.054Z,6.48
2019-04-28T01:21:02.627Z,6.45
2019-04-28T01:23:59.837Z,6.45
2019-04-28T01:26:55.785Z,6.44
2019-04-28T01:30:05.461Z,6.44
2019-04-28T01:32:54.204Z,6.40
2019-04-28T01:35:52.579Z,6.41
2019-04-28T01:38:50.087Z,6.45
2019-04-28T01:41:43.904Z,6.43
2019-04-28T01:44:40.467Z,6.42
2019-04-28T01:47:40.419Z,6.39
2019-04-28T01:50:34.974Z,6.43
2019-04-28T01:53:31.529Z,6.48
2019-04-28T01:56:27.115Z,6.44
2019-04-28T01:59:23.930Z,6.41
2019-04-28T02:02:19.944Z,6.36
2019-04-28T02:05:15.427Z,6.35
2019-04-28T02:08:10.923Z,6.26
2019-04-28T02:11:07.721Z,6.15
2019-04-28T02:14:03.535Z,6.17
2019-04-28T02:17:00.631Z,6.18
2019-04-28T02:19:57.216Z,6.18
2019-04-28T02:23:04.467Z,6.17
2019-04-28T02:26:01.052Z,6.09
2019-04-28T02:28:56.858Z,6.05
2019-04-28T02:31:55.397Z,6.10
2019-04-28T02:34:50.914Z,6.10
2019-04-28T02:37:50.302Z,6.17
2019-04-28T02:40:45.065Z,6.16
2019-04-28T02:43:41.030Z,6.14
2019-04-28T02:46:37.256Z,6.14
2019-04-28T02:49:40.850Z,6.16
2019-04-28T02:52:51.867Z,6.17
2019-04-28T02:55:47.110Z,6.18
2019-04-28T02:58:42.728Z,6.15
2019-04-28T03:01:40.955Z,6.15
2019-04-28T03:04:35.500Z,6.16
2019-04-28T03:07:33.060Z,6.11
2019-04-28T03:10:31.116Z,6.11
2019-04-28T03:13:26.395Z,6.13
2019-04-28T03:16:23.311Z,6.13
2019-04-28T03:19:21.165Z,6.08
2019-04-28T03:22:15.685Z,6.03
2019-04-28T03:25:11.901Z,6.03
2019-04-28T03:28:21.375Z,6.02
2019-04-28T03:32:04.138Z,5.99
2019-04-28T03:34:53.945Z,5.96
2019-04-28T03:37:47.285Z,5.89
2019-04-28T03:40:42.633Z,5.91
2019-04-28T03:43:40.622Z,5.86
2019-04-28T03:46:34.745Z,5.84
2019-04-28T03:49:45.201Z,5.81
2019-04-28T03:52:43.042Z,5.83
2019-04-28T03:55:41.449Z,5.84
2019-04-28T03:58:35.482Z,5.79
2019-04-28T04:01:31.041Z,5.75
2019-04-28T04:04:27.653Z,5.73
2019-04-28T04:07:23.214Z,5.73
2019-04-28T04:10:33.478Z,5.75
2019-04-28T04:13:43.023Z,5.77
2019-04-28T04:17:11.702Z,5.73
2019-04-28T04:20:07.032Z,5.63
2019-04-28T04:23:04.621Z,5.64
2019-04-28T04:26:01.696Z,5.60
2019-04-28T04:28:57.066Z,5.62
2019-04-28T04:32:10.058Z,5.56
2019-04-28T04:34:50.577Z,5.55
2019-04-28T04:37:45.507Z,5.56
2019-04-28T04:40:41.483Z,5.58
2019-04-28T04:43:37.738Z,5.56
2019-04-28T04:46:35.535Z,5.52
2019-04-28T04:49:32.210Z,5.50
2019-04-28T04:52:30.427Z,5.50
2019-04-28T04:55:24.579Z,5.50
2019-04-28T04:58:21.509Z,5.47
2019-04-28T05:01:21.377Z,5.46
2019-04-28T05:04:39.606Z,5.49
2019-04-28T05:07:36.712Z,5.46
2019-04-28T05:10:32.575Z,5.53
2019-04-28T05:13:30.040Z,5.57
2019-04-28T05:16:24.480Z,5.58
2019-04-28T05:19:21.037Z,5.62
2019-04-28T05:22:17.375Z,5.62
2019-04-28T05:25:24.556Z,5.58
2019-04-28T05:28:20.387Z,5.58
2019-04-28T05:31:23.379Z,5.61
2019-04-28T05:34:14.695Z,5.67
2019-04-28T05:37:10.778Z,5.72
2019-04-28T05:40:06.897Z,5.81
2019-04-28T05:43:11.574Z,5.90
2019-04-28T05:46:07.324Z,5.95
2019-04-28T05:49:10.296Z,5.91
2019-04-28T05:52:06.072Z,5.96
2019-04-28T05:55:06.509Z,6.06
2019-04-28T05:58:17.131Z,6.17
2019-04-28T06:01:23.313Z,6.30
2019-04-28T06:04:23.916Z,6.44
2019-04-28T06:07:30.463Z,6.56
2019-04-28T06:10:25.476Z,6.65
2019-04-28T06:13:22.001Z,6.70
2019-04-28T06:16:19.602Z,6.70
2019-04-28T06:19:14.728Z,6.69
2019-04-28T06:22:11.526Z,6.69
2019-04-28T06:25:08.094Z,6.72
2019-04-28T06:28:03.422Z,6.73
2019-04-28T06:31:01.097Z,6.77
2019-04-28T06:33:56.870Z,6.80
2019-04-28T06:36:53.581Z,6.86
2019-04-28T06:39:49.422Z,6.98
2019-04-28T06:42:46.026Z,7.10
2019-04-28T06:45:41.662Z,7.30
2019-04-28T06:48:38.389Z,7.48
2019-04-28T06:51:34.331Z,7.63
2019-04-28T06:54:30.956Z,7.67
2019-04-28T06:57:28.582Z,7.64
2019-04-28T07:00:24.076Z,7.68
2019-04-28T07:03:23.313Z,7.65
2019-04-28T07:06:16.198Z,7.53
2019-04-28T07:09:15.822Z,7.40
2019-04-28T07:12:10.866Z,7.29
2019-04-28T07:15:07.453Z,7.28
2019-04-28T07:18:06.598Z,7.37
2019-04-28T07:21:20.921Z,7.48
2019-04-28T07:24:21.475Z,7.64
2019-04-28T07:27:18.314Z,7.72
2019-04-28T07:30:21.232Z,7.75
2019-04-28T07:33:17.980Z,7.82
2019-04-28T07:36:15.155Z,8.00
2019-04-28T07:39:12.930Z,8.22
2019-04-28T07:42:09.712Z,8.50
2019-04-28T07:45:05.329Z,8.61
2019-04-28T07:48:02.130Z,8.65
2019-04-28T07:50:57.734Z,8.73
2019-04-28T07:54:09.762Z,8.77
2019-04-28T07:57:06.201Z,8.78
2019-04-28T08:00:02.769Z,8.71
2019-04-28T08:03:08.874Z,8.74
2019-04-28T08:06:04.524Z,8.75
2019-04-28T08:09:02.480Z,8.87
2019-04-28T08:11:56.967Z,8.88
2019-04-28T08:14:53.679Z,8.87
2019-04-28T08:17:49.241Z,8.92
2019-04-28T08:20:46.390Z,9.00
2019-04-28T08:23:54.075Z,9.15
2019-04-28T08:26:53.920Z,9.23
2019-04-28T08:29:58.264Z,9.32
2019-04-28T08:33:02.330Z,9.35
2019-04-28T08:35:58.107Z,9.48
2019-04-28T08:38:54.564Z,9.65
2019-04-28T08:41:51.178Z,9.80
2019-04-28T08:44:47.201Z,9.80
2019-04-28T08:47:43.771Z,9.62
2019-04-28T08:50:39.569Z,9.75
2019-04-28T08:53:36.460Z,9.82
2019-04-28T08:56:33.109Z,9.88
2019-04-28T08:59:34.313Z,9.98
2019-04-28T09:02:32.242Z,10.03
2019-04-28T09:05:30.417Z,10.21
2019-04-28T09:08:25.863Z,10.47
2019-04-28T09:11:27.821Z,10.73
2019-04-28T09:14:25.294Z,10.94
2019-04-28T09:17:22.195Z,10.97
2019-04-28T09:20:17.450Z,10.84
2019-04-28T09:23:19.460Z,10.76
2019-04-28T09:26:15.306Z,10.95
2019-04-28T09:29:12.091Z,11.22
2019-04-28T09:32:09.832Z,11.32
2019-04-28T09:35:06.666Z,11.61
2019-04-28T09:38:03.380Z,11.87
2019-04-28T09:40:58.640Z,11.98
2019-04-28T09:44:14.072Z,11.79
2019-04-28T09:47:11.799Z,11.79
2019-04-28T09:50:07.718Z,12.13
2019-04-28T09:53:04.659Z,12.28
2019-04-28T09:56:00.943Z,12.20
2019-04-28T09:58:57.783Z,12.10
2019-04-28T10:01:54.511Z,11.62
2019-04-28T10:04:54.341Z,10.93
2019-04-28T10:07:52.765Z,10.78
2019-04-28T10:10:48.325Z,10.73
2019-04-28T10:13:46.058Z,10.78
2019-04-28T10:16:41.869Z,10.79
2019-04-28T10:19:40.072Z,10.72
2019-04-28T10:22:35.763Z,10.70
2019-04-28T10:25:32.649Z,10.68
2019-04-28T10:28:28.327Z,10.76
2019-04-28T10:31:25.965Z,10.92
2019-04-28T10:34:23.678Z,10.94
2019-04-28T10:37:19.898Z,11.18
2019-04-28T10:40:20.623Z,11.33
2019-04-28T10:43:16.281Z,11.46
2019-04-28T10:46:12.975Z,11.60
2019-04-28T10:49:09.866Z,11.69
2019-04-28T10:52:06.636Z,11.76
2019-04-28T10:55:03.151Z,11.77
2019-04-28T10:58:00.187Z,11.80
2019-04-28T11:00:56.518Z,11.66
2019-04-28T11:03:52.353Z,11.29
2019-04-28T11:06:49.980Z,11.02
2019-04-28T11:09:49.207Z,10.90
2019-04-28T11:12:45.959Z,10.77
2019-04-28T11:15:44.847Z,10.64
2019-04-28T11:18:40.570Z,10.67
2019-04-28T11:21:37.893Z,10.80
2019-04-28T11:24:34.363Z,10.91
2019-04-28T11:27:31.257Z,10.98
2019-04-28T11:30:31.160Z,10.99
2019-04-28T11:33:39.961Z,11.05
2019-04-28T11:36:37.660Z,11.13
2019-04-28T11:39:36.921Z,11.29
2019-04-28T11:42:33.757Z,11.40
2019-04-28T11:45:33.023Z,11.57
2019-04-28T11:48:31.377Z,11.72
2019-04-28T11:51:38.924Z,11.84
2019-04-28T11:54:34.980Z,12.02
2019-04-28T11:57:35.927Z,12.05
2019-04-28T12:00:35.599Z,12.10
2019-04-28T12:03:32.462Z,12.10
2019-04-28T12:06:29.375Z,12.26
2019-04-28T12:09:39.926Z,12.52
2019-04-28T12:12:47.858Z,12.64
2019-04-28T12:16:08.816Z,12.44
2019-04-28T12:19:18.012Z,12.46
2019-04-28T12:22:13.671Z,12.72
2019-04-28T12:25:11.045Z,12.79
2019-04-28T12:28:07.155Z,12.80
2019-04-28T12:31:03.849Z,12.94
2019-04-28T12:34:00.537Z,12.96
2019-04-28T12:36:58.247Z,12.82
2019-04-28T12:39:54.045Z,12.73
2019-04-28T12:42:51.026Z,12.78
2019-04-28T12:45:49.139Z,12.88
2019-04-28T12:48:44.248Z,12.98
2019-04-28T12:51:40.888Z,13.21
2019-04-28T12:54:37.628Z,13.36
2019-04-28T12:57:43.478Z,13.41
2019-04-28T13:00:54.174Z,13.43
2019-04-28T13:04:09.967Z,13.48
2019-04-28T13:07:17.154Z,13.49
2019-04-28T13:10:12.673Z,13.48
2019-04-28T13:13:09.346Z,13.32
2019-04-28T13:16:04.960Z,13.24
2019-04-28T13:19:01.681Z,13.34
2019-04-28T13:21:57.585Z,13.44
2019-04-28T13:24:54.256Z,13.45
2019-04-28T13:27:51.949Z,13.44
2019-04-28T13:30:47.928Z,13.53
2019-04-28T13:33:55.837Z,13.63
2019-04-28T13:36:38.204Z,13.69
2019-04-28T13:39:38.633Z,13.61
2019-04-28T13:42:34.416Z,13.38
2019-04-28T13:45:32.351Z,13.29
2019-04-28T13:48:27.997Z,13.13
2019-04-28T13:51:24.681Z,12.99
2019-04-28T13:54:20.130Z,13.08
2019-04-28T13:57:17.750Z,13.29
2019-04-28T14:00:14.210Z,13.59
2019-04-28T14:03:19.934Z,13.77
2019-04-28T14:06:28.455Z,13.73
2019-04-28T14:09:31.043Z,14.13
2019-04-28T14:12:28.804Z,14.13
2019-04-28T14:15:24.413Z,14.18
2019-04-28T14:18:22.388Z,14.22
2019-04-28T14:21:17.354Z,14.48
2019-04-28T14:24:14.461Z,15.47
2019-04-28T14:27:11.098Z,16.37
2019-04-28T14:30:08.064Z,16.31
2019-04-28T14:33:05.074Z,15.83
2019-04-28T14:36:01.533Z,15.72
2019-04-28T14:38:56.322Z,15.18
2019-04-28T14:41:52.376Z,14.53
2019-04-28T14:44:48.174Z,14.05
2019-04-28T14:47:46.788Z,13.87
2019-04-28T14:50:43.497Z,13.70
2019-04-28T14:53:39.502Z,13.55
2019-04-28T14:56:36.100Z,13.40
2019-04-28T14:59:31.905Z,13.31
2019-04-28T15:02:33.079Z,13.29
2019-04-28T15:05:40.821Z,13.22
2019-04-28T15:09:05.445Z,13.09
2019-04-28T15:12:05.111Z,12.92
2019-04-28T15:15:02.808Z,12.84
2019-04-28T15:18:00.268Z,12.81
2019-04-28T15:20:56.480Z,12.72
2019-04-28T15:23:53.245Z,12.66
2019-04-28T15:26:49.434Z,12.65
2019-04-28T15:29:46.120Z,12.61
2019-04-28T15:32:43.104Z,12.52
2019-04-28T15:35:39.821Z,12.40
2019-04-28T15:38:37.278Z,12.34
2019-04-28T15:41:33.043Z,12.28
2019-04-28T15:44:29.942Z,12.18
2019-04-28T15:47:25.953Z,12.14
2019-04-28T15:50:25.295Z,12.10
2019-04-28T15:53:20.970Z,12.01
2019-04-28T15:56:31.800Z,11.94
2019-04-28T15:59:31.640Z,11.93
2019-04-28T16:02:30.242Z,11.87
2019-04-28T16:05:27.042Z,11.85
2019-04-28T16:08:22.660Z,11.82
2019-04-28T16:11:19.581Z,11.77
2019-04-28T16:14:16.572Z,11.73
2019-04-28T16:17:16.142Z,11.68
2019-04-28T16:20:13.267Z,11.60
2019-04-28T16:23:09.219Z,11.54
2019-04-28T16:26:06.278Z,11.52
2019-04-28T16:29:03.262Z,11.49
2019-04-28T16:32:00.507Z,11.43
2019-04-28T16:34:59.513Z,11.37
2019-04-28T16:37:55.876Z,11.37
2019-04-28T16:40:54.274Z,11.41
2019-04-28T16:43:57.545Z,11.40
2019-04-28T16:46:53.293Z,11.34
2019-04-28T16:49:50.005Z,11.32
2019-04-28T16:52:45.106Z,11.32
2019-04-28T16:55:47.223Z,11.32
2019-04-28T16:59:00.678Z,11.28
2019-04-28T17:02:13.886Z,11.26
2019-04-28T17:05:10.690Z,11.23
2019-04-28T17:08:06.289Z,11.23
2019-04-28T17:11:04.541Z,11.19
2019-04-28T17:14:02.605Z,11.19
2019-04-28T17:16:59.582Z,11.17
2019-04-28T17:20:06.750Z,11.14
2019-04-28T17:23:02.596Z,11.09
2019-04-28T17:25:59.753Z,11.05
2019-04-28T17:28:55.847Z,10.99
2019-04-28T17:31:52.615Z,10.90
2019-04-28T17:34:49.346Z,10.83
2019-04-28T17:37:47.187Z,10.77
2019-04-28T17:40:46.605Z,10.73
2019-04-28T17:43:44.211Z,10.69
2019-04-28T17:46:42.521Z,10.62
2019-04-28T17:49:56.814Z,10.63
2019-04-28T17:52:54.407Z,10.60
2019-04-28T17:55:53.618Z,10.56
2019-04-28T17:58:52.317Z,10.54
2019-04-28T18:02:03.494Z,10.50
2019-04-28T18:05:18.969Z,10.44
2019-04-28T18:08:21.131Z,10.36
2019-04-28T18:11:17.841Z,10.30
2019-04-28T18:14:16.519Z,10.26
2019-04-28T18:17:31.412Z,10.23
2019-04-28T18:27:44.913Z,9.98
2019-04-28T18:30:51.902Z,9.92
2019-04-28T18:34:01.678Z,9.85
2019-04-28T18:37:04.995Z,9.81
2019-04-28T18:40:14.197Z,9.77
2019-04-28T18:43:31.953Z,9.72
2019-04-28T18:46:32.344Z,9.66
2019-04-28T18:49:28.051Z,9.60
2019-04-28T18:52:24.180Z,9.56
2019-04-28T18:55:23.703Z,9.50
2019-04-28T18:58:20.738Z,9.46
2019-04-28T19:01:41.091Z,9.39
2019-04-28T19:04:43.470Z,9.36
2019-04-28T19:07:53.603Z,9.28
2019-04-28T19:10:59.429Z,9.22
2019-04-28T19:13:58.932Z,9.14
2019-04-28T19:17:12.668Z,9.02
2019-04-28T19:20:08.721Z,8.92
2019-04-28T19:23:05.672Z,8.83
2019-04-28T19:26:01.474Z,8.77
2019-04-28T19:28:59.092Z,8.73
2019-04-28T19:31:54.758Z,8.66
2019-04-28T19:34:53.886Z,8.61
2019-04-28T19:37:50.874Z,8.56
2019-04-28T19:40:46.537Z,8.50
2019-04-28T19:43:43.788Z,8.47
2019-04-28T19:46:39.396Z,8.45
2019-04-28T19:49:36.181Z,8.41
2019-04-28T19:52:39.023Z,8.36
2019-04-28T19:55:38.759Z,8.36
2019-04-28T19:58:41.982Z,8.37
2019-04-28T20:01:40.288Z,8.34
2019-04-28T20:04:37.100Z,8.34
2019-04-28T20:07:32.603Z,8.33
2019-04-28T20:10:29.401Z,8.33
2019-04-28T20:13:26.253Z,8.27
2019-04-28T20:16:25.018Z,8.18
2019-04-28T20:19:21.986Z,8.19
2019-04-28T20:22:19.917Z,8.18
2019-04-28T20:25:16.627Z,8.17
2019-04-28T20:28:12.129Z,8.18
2019-04-28T20:31:08.622Z,8.18
2019-04-28T20:34:05.281Z,8.18
2019-04-28T20:37:06.111Z,8.19
2019-04-28T20:40:04.267Z,8.19
2019-04-28T20:43:07.513Z,8.20
2019-04-28T20:46:04.362Z,8.21
2019-04-28T20:49:00.150Z,8.22
2019-04-28T20:51:56.725Z,8.23
2019-04-28T20:54:52.377Z,8.20
2019-04-28T20:57:49.355Z,8.21
2019-04-28T21:00:44.995Z,8.22
2019-04-28T21:03:42.847Z,8.23
2019-04-28T21:06:40.391Z,8.22
2019-04-28T21:09:37.329Z,8.23
2019-04-28T21:12:33.243Z,8.23
2019-04-28T21:15:30.916Z,8.21
2019-04-28T21:18:27.567Z,8.14
2019-04-28T21:21:24.243Z,8.10
2019-04-28T21:24:23.037Z,8.10
2019-04-28T21:27:20.773Z,8.08
2019-04-28T21:30:17.417Z,8.08
2019-04-28T21:33:12.930Z,8.06
2019-04-28T21:36:09.745Z,8.05
2019-04-28T21:39:05.202Z,8.07
2019-04-28T21:42:01.731Z,8.07
2019-04-28T21:45:17.775Z,8.05
2019-04-28T21:48:14.387Z,8.06
2019-04-28T21:51:12.433Z,8.09
2019-04-28T21:54:08.808Z,8.13
2019-04-28T21:57:05.015Z,8.15
2019-04-28T22:00:00.687Z,8.16
2019-04-28T22:02:58.486Z,8.13
2019-04-28T22:05:54.911Z,8.09
2019-04-28T22:08:51.633Z,8.04
2019-04-28T22:11:47.366Z,7.99
2019-04-28T22:14:44.978Z,7.98
2019-04-28T22:17:41.796Z,7.96
2019-04-28T22:20:37.456Z,7.92
2019-04-28T22:23:38.662Z,7.97
2019-04-28T22:26:46.366Z,7.98
2019-04-28T22:29:44.263Z,7.97
2019-04-28T22:32:39.944Z,7.99
2019-04-28T22:35:37.784Z,7.98
2019-04-28T22:38:33.210Z,7.95
2019-04-28T22:41:30.006Z,7.90
2019-04-28T22:44:33.012Z,7.84
2019-04-28T22:47:29.946Z,7.82
2019-04-28T22:50:28.366Z,7.82
2019-04-28T22:53:24.639Z,7.83
2019-04-28T22:56:33.367Z,7.78
2019-04-28T22:59:33.448Z,7.78
2019-04-28T23:02:31.179Z,7.74
2019-04-28T23:05:28.838Z,7.71
2019-04-28T23:08:26.609Z,7.69
2019-04-28T23:11:22.248Z,7.71
2019-04-28T23:14:18.860Z,7.69
2019-04-28T23:17:16.261Z,7.70
2019-04-28T23:20:11.578Z,7.65
2019-04-28T23:23:11.367Z,7.62
2019-04-28T23:26:08.002Z,7.63
2019-04-28T23:29:04.726Z,7.61
2019-04-28T23:32:00.310Z,7.59
2019-04-28T23:34:58.896Z,7.56
2019-04-28T23:37:54.541Z,7.53
2019-04-28T23:40:55.016Z,7.48
2019-04-28T23:43:50.892Z,7.45
2019-04-28T23:46:59.242Z,7.42
2019-04-28T23:49:54.774Z,7.37
2019-04-28T23:52:54.552Z,7.33
2019-04-28T23:55:51.179Z,7.26
2019-04-28T23:58:48.326Z,7.21
